createdAt,value
2018-01-26T00:00:11.676Z,0.00
2018-01-26T00:01:11.570Z,0.00
2018-01-26T00:02:11.504Z,0.00
2018-01-26T00:03:11.420Z,0.00
2018-01-26T00:04:11.350Z,0.00
2018-01-26T00:05:11.253Z,0.00
2018-01-26T00:06:11.173Z,0.00
2018-01-26T00:07:11.087Z,0.00
2018-01-26T00:08:11.019Z,0.00
2018-01-26T00:09:10.928Z,0.00
2018-01-26T00:10:10.851Z,0.00
2018-01-26T00:11:10.763Z,0.00
2018-01-26T00:12:10.677Z,0.00
2018-01-26T00:13:10.601Z,0.00
2018-01-26T00:14:10.522Z,0.00
2018-01-26T00:15:10.453Z,0.00
2018-01-26T00:16:10.353Z,0.00
2018-01-26T00:17:10.275Z,0.00
2018-01-26T00:18:10.203Z,0.00
2018-01-26T00:19:10.128Z,0.00
2018-01-26T00:20:10.024Z,0.00
2018-01-26T00:21:09.957Z,0.00
2018-01-26T00:22:09.872Z,0.00
2018-01-26T00:23:09.798Z,0.00
2018-01-26T00:24:09.706Z,0.00
2018-01-26T00:25:09.625Z,0.00
2018-01-26T00:26:09.546Z,0.00
2018-01-26T00:27:09.481Z,0.00
2018-01-26T00:28:09.379Z,0.00
2018-01-26T00:29:09.301Z,0.00
2018-01-26T00:30:09.226Z,0.00
2018-01-26T00:31:09.143Z,0.00
2018-01-26T00:32:09.053Z,0.00
2018-01-26T00:33:08.975Z,0.00
2018-01-26T00:34:08.894Z,0.00
2018-01-26T00:35:08.829Z,0.00
2018-01-26T00:36:08.726Z,0.00
2018-01-26T00:37:08.654Z,0.00
2018-01-26T00:38:08.562Z,0.00
2018-01-26T00:39:08.488Z,0.00
2018-01-26T00:40:08.436Z,0.00
2018-01-26T00:41:08.326Z,0.00
2018-01-26T00:42:08.248Z,0.00
2018-01-26T00:43:08.169Z,0.00
2018-01-26T00:44:08.083Z,0.00
2018-01-26T00:45:08.005Z,0.00
2018-01-26T00:46:07.927Z,0.00
2018-01-26T00:47:07.852Z,0.00
2018-01-26T00:48:07.760Z,0.00
2018-01-26T00:49:07.675Z,0.00
2018-01-26T00:50:07.592Z,0.00
2018-01-26T00:51:07.581Z,0.00
2018-01-26T00:52:07.426Z,0.00
2018-01-26T00:53:07.358Z,0.00
2018-01-26T00:54:07.270Z,0.00
2018-01-26T00:55:07.190Z,0.00
2018-01-26T00:56:07.107Z,0.00
2018-01-26T00:57:07.026Z,0.00
2018-01-26T00:58:06.945Z,0.00
2018-01-26T00:59:06.864Z,0.00
2018-01-26T01:00:07.080Z,0.00
2018-01-26T01:01:06.705Z,0.00
2018-01-26T01:02:06.632Z,0.00
2018-01-26T01:03:06.528Z,0.00
2018-01-26T01:04:06.458Z,0.00
2018-01-26T01:05:06.382Z,0.00
2018-01-26T01:06:06.298Z,0.00
2018-01-26T01:07:06.235Z,0.00
2018-01-26T01:08:06.130Z,0.00
2018-01-26T01:09:06.085Z,0.00
2018-01-26T01:10:05.965Z,0.00
2018-01-26T01:11:05.880Z,0.00
2018-01-26T01:12:05.812Z,0.00
2018-01-26T01:13:05.729Z,0.00
2018-01-26T01:14:05.648Z,0.00
2018-01-26T01:15:05.563Z,0.00
2018-01-26T01:16:05.481Z,0.00
2018-01-26T01:17:05.411Z,0.00
2018-01-26T01:18:05.330Z,0.00
2018-01-26T01:19:05.232Z,0.00
2018-01-26T01:20:05.164Z,0.00
2018-01-26T01:21:05.083Z,0.00
2018-01-26T01:22:04.996Z,0.00
2018-01-26T01:23:04.909Z,0.00
2018-01-26T01:24:04.830Z,0.00
2018-01-26T01:25:04.764Z,0.00
2018-01-26T01:26:04.672Z,0.00
2018-01-26T01:27:04.581Z,0.00
2018-01-26T01:28:04.511Z,0.00
2018-01-26T01:29:04.429Z,0.00
2018-01-26T01:30:04.358Z,0.00
2018-01-26T01:31:04.264Z,0.00
2018-01-26T01:32:04.185Z,0.00
2018-01-26T01:33:04.104Z,0.00
2018-01-26T01:34:04.042Z,0.00
2018-01-26T01:35:03.934Z,0.00
2018-01-26T01:36:03.854Z,0.00
2018-01-26T01:37:03.779Z,0.00
2018-01-26T01:38:03.697Z,0.00
2018-01-26T01:39:03.609Z,0.00
2018-01-26T01:40:03.538Z,0.00
2018-01-26T01:41:03.448Z,0.00
2018-01-26T01:42:03.373Z,0.00
2018-01-26T01:43:03.288Z,0.00
2018-01-26T01:44:03.206Z,0.00
2018-01-26T01:45:03.125Z,0.00
2018-01-26T01:46:03.059Z,0.00
2018-01-26T01:47:02.958Z,0.00
2018-01-26T01:48:02.887Z,0.00
2018-01-26T01:49:02.801Z,0.00
2018-01-26T01:50:02.727Z,0.00
2018-01-26T01:51:02.642Z,0.00
2018-01-26T01:52:02.559Z,0.00
2018-01-26T01:53:02.475Z,0.00
2018-01-26T01:54:02.410Z,0.00
2018-01-26T01:55:02.307Z,0.00
2018-01-26T01:56:02.242Z,0.00
2018-01-26T01:57:02.151Z,0.00
2018-01-26T01:58:02.092Z,0.00
2018-01-26T01:59:01.988Z,0.00
2018-01-26T02:00:01.909Z,0.00
2018-01-26T02:01:01.829Z,0.00
2018-01-26T02:02:01.762Z,0.00
2018-01-26T02:03:01.657Z,0.00
2018-01-26T02:04:01.592Z,0.00
2018-01-26T02:05:01.502Z,0.00
2018-01-26T02:06:01.427Z,0.00
2018-01-26T02:07:01.359Z,0.00
2018-01-26T02:08:01.258Z,0.00
2018-01-26T02:09:01.189Z,0.00
2018-01-26T02:10:01.114Z,0.00
2018-01-26T02:11:01.017Z,0.00
2018-01-26T02:12:00.940Z,0.00
2018-01-26T02:13:00.847Z,0.00
2018-01-26T02:14:00.790Z,0.00
2018-01-26T02:15:00.688Z,0.00
2018-01-26T02:16:00.609Z,0.00
2018-01-26T02:17:00.529Z,0.00
2018-01-26T02:18:00.461Z,0.00
2018-01-26T02:19:00.360Z,0.00
2018-01-26T02:20:00.290Z,0.00
2018-01-26T02:21:00.201Z,0.00
2018-01-26T02:22:00.139Z,0.00
2018-01-26T02:23:00.056Z,0.00
2018-01-26T02:23:59.961Z,0.00
2018-01-26T02:24:59.883Z,0.00
2018-01-26T02:25:59.801Z,0.00
2018-01-26T02:26:59.710Z,0.00
2018-01-26T02:27:59.643Z,0.00
2018-01-26T02:28:59.551Z,0.00
2018-01-26T02:29:59.480Z,0.00
2018-01-26T02:30:59.391Z,0.00
2018-01-26T02:31:59.312Z,0.00
2018-01-26T02:32:59.235Z,0.00
2018-01-26T02:33:59.161Z,0.00
2018-01-26T02:34:59.066Z,0.00
2018-01-26T02:35:58.992Z,0.00
2018-01-26T02:36:58.901Z,0.00
2018-01-26T02:37:58.832Z,0.00
2018-01-26T02:38:58.745Z,0.00
2018-01-26T02:39:58.666Z,0.00
2018-01-26T02:40:58.585Z,0.00
2018-01-26T02:41:58.505Z,0.00
2018-01-26T02:42:58.417Z,0.00
2018-01-26T02:43:58.344Z,0.00
2018-01-26T02:44:58.266Z,0.00
2018-01-26T02:45:58.183Z,0.00
2018-01-26T02:46:58.093Z,0.00
2018-01-26T02:47:58.017Z,0.00
2018-01-26T02:48:57.931Z,0.00
2018-01-26T02:49:57.851Z,0.00
2018-01-26T02:50:57.769Z,0.00
2018-01-26T02:51:57.695Z,0.00
2018-01-26T02:52:57.607Z,0.00
2018-01-26T02:53:57.530Z,0.00
2018-01-26T02:54:57.442Z,0.00
2018-01-26T02:55:57.367Z,0.00
2018-01-26T02:56:57.282Z,0.00
2018-01-26T02:57:57.208Z,0.00
2018-01-26T02:58:57.132Z,0.00
2018-01-26T02:59:57.044Z,0.00
2018-01-26T03:00:56.963Z,0.00
2018-01-26T03:01:56.894Z,0.00
2018-01-26T03:02:56.793Z,0.00
2018-01-26T03:03:56.717Z,0.00
2018-01-26T03:04:56.933Z,0.00
2018-01-26T03:05:56.558Z,0.00
2018-01-26T03:06:56.466Z,0.00
2018-01-26T03:07:56.398Z,0.00
2018-01-26T03:08:56.319Z,0.00
2018-01-26T03:09:56.234Z,0.00
2018-01-26T03:10:56.153Z,0.00
2018-01-26T03:11:56.067Z,0.00
2018-01-26T03:12:55.986Z,0.00
2018-01-26T03:13:55.920Z,0.00
2018-01-26T03:14:55.814Z,0.00
2018-01-26T03:15:55.747Z,0.00
2018-01-26T03:16:55.659Z,0.00
2018-01-26T03:17:55.588Z,0.00
2018-01-26T03:18:55.498Z,0.00
2018-01-26T03:19:55.417Z,0.00
2018-01-26T03:20:55.337Z,0.00
2018-01-26T03:21:55.260Z,0.00
2018-01-26T03:22:55.168Z,0.00
2018-01-26T03:23:55.095Z,0.00
2018-01-26T03:24:55.009Z,0.00
2018-01-26T03:25:54.945Z,0.00
2018-01-26T03:26:54.847Z,0.00
2018-01-26T03:27:54.772Z,0.00
2018-01-26T03:28:54.690Z,0.00
2018-01-26T03:29:54.925Z,0.00
2018-01-26T03:30:54.518Z,0.00
2018-01-26T03:31:54.448Z,0.00
2018-01-26T03:32:54.356Z,0.00
2018-01-26T03:33:54.291Z,0.00
2018-01-26T03:34:54.196Z,0.00
2018-01-26T03:35:54.124Z,0.00
2018-01-26T03:36:54.049Z,0.00
2018-01-26T03:37:53.957Z,0.00
2018-01-26T03:38:53.870Z,0.00
2018-01-26T03:39:53.798Z,0.00
2018-01-26T03:40:53.713Z,0.00
2018-01-26T03:41:53.632Z,0.00
2018-01-26T03:42:53.546Z,0.00
2018-01-26T03:43:53.477Z,0.00
2018-01-26T03:44:53.398Z,0.00
2018-01-26T03:45:53.315Z,0.00
2018-01-26T03:46:53.225Z,0.00
2018-01-26T03:47:53.146Z,0.00
2018-01-26T03:48:53.073Z,0.00
2018-01-26T03:49:52.995Z,0.00
2018-01-26T03:50:52.896Z,0.00
2018-01-26T03:51:52.823Z,0.00
2018-01-26T03:52:52.738Z,0.00
2018-01-26T03:53:52.665Z,0.00
2018-01-26T03:54:52.578Z,0.00
2018-01-26T03:55:52.497Z,0.00
2018-01-26T03:56:52.425Z,0.00
2018-01-26T03:57:52.334Z,0.00
2018-01-26T03:58:52.247Z,0.00
2018-01-26T03:59:52.176Z,0.00
2018-01-26T04:00:52.088Z,0.00
2018-01-26T04:01:52.029Z,0.00
2018-01-26T04:02:51.924Z,0.00
2018-01-26T04:03:51.845Z,0.00
2018-01-26T04:04:51.764Z,0.00
2018-01-26T04:05:51.686Z,0.00
2018-01-26T04:06:51.601Z,0.00
2018-01-26T04:07:51.526Z,0.00
2018-01-26T04:08:51.448Z,0.00
2018-01-26T04:09:51.369Z,0.00
2018-01-26T04:10:51.276Z,0.00
2018-01-26T04:11:51.196Z,0.00
2018-01-26T04:12:51.129Z,0.00
2018-01-26T04:13:51.038Z,0.00
2018-01-26T04:14:50.950Z,0.00
2018-01-26T04:15:50.879Z,0.00
2018-01-26T04:16:50.787Z,0.00
2018-01-26T04:17:50.721Z,0.00
2018-01-26T04:18:50.629Z,0.00
2018-01-26T04:19:50.549Z,0.00
2018-01-26T04:20:50.470Z,0.00
2018-01-26T04:21:50.419Z,0.00
2018-01-26T04:22:50.298Z,0.00
2018-01-26T04:23:50.229Z,0.00
2018-01-26T04:24:50.138Z,0.00
2018-01-26T04:25:50.070Z,0.00
2018-01-26T04:26:49.978Z,0.00
2018-01-26T04:27:49.900Z,0.00
2018-01-26T04:28:49.828Z,0.00
2018-01-26T04:29:49.730Z,0.00
2018-01-26T04:30:49.651Z,0.00
2018-01-26T04:31:49.582Z,0.00
2018-01-26T04:32:49.487Z,0.00
2018-01-26T04:33:49.404Z,0.00
2018-01-26T04:34:49.332Z,0.00
2018-01-26T04:35:49.237Z,0.00
2018-01-26T04:36:49.182Z,0.00
2018-01-26T04:37:49.092Z,0.00
2018-01-26T04:38:49.005Z,0.00
2018-01-26T04:39:48.934Z,0.00
2018-01-26T04:40:48.838Z,0.00
2018-01-26T04:41:48.757Z,0.00
2018-01-26T04:42:48.681Z,0.00
2018-01-26T04:43:48.593Z,0.00
2018-01-26T04:44:48.830Z,0.00
2018-01-26T04:45:48.426Z,0.00
2018-01-26T04:46:48.353Z,0.00
2018-01-26T04:47:48.270Z,0.00
2018-01-26T04:48:48.188Z,0.00
2018-01-26T04:49:48.104Z,0.00
2018-01-26T04:50:48.035Z,0.00
2018-01-26T04:51:47.939Z,0.00
2018-01-26T04:52:47.858Z,0.00
2018-01-26T04:53:47.781Z,0.00
2018-01-26T04:54:47.701Z,0.00
2018-01-26T04:55:47.637Z,0.00
2018-01-26T04:56:47.527Z,0.00
2018-01-26T04:57:47.459Z,0.00
2018-01-26T04:58:47.386Z,0.00
2018-01-26T04:59:47.289Z,0.00
2018-01-26T05:00:47.205Z,0.00
2018-01-26T05:01:47.126Z,0.00
2018-01-26T05:02:47.039Z,0.00
2018-01-26T05:03:46.979Z,0.00
2018-01-26T05:04:46.879Z,0.00
2018-01-26T05:05:46.811Z,0.00
2018-01-26T05:06:46.732Z,0.00
2018-01-26T05:07:46.634Z,0.00
2018-01-26T05:08:46.555Z,0.00
2018-01-26T05:09:46.470Z,0.00
2018-01-26T05:10:46.390Z,0.00
2018-01-26T05:11:46.306Z,0.00
2018-01-26T05:12:46.230Z,0.00
2018-01-26T05:13:46.150Z,0.00
2018-01-26T05:14:46.073Z,0.00
2018-01-26T05:15:45.993Z,0.00
2018-01-26T05:16:45.909Z,0.00
2018-01-26T05:17:45.829Z,0.00
2018-01-26T05:18:45.732Z,0.00
2018-01-26T05:19:45.659Z,0.00
2018-01-26T05:20:45.581Z,0.00
2018-01-26T05:21:45.512Z,0.00
2018-01-26T05:22:45.412Z,0.00
2018-01-26T05:23:45.328Z,0.00
2018-01-26T05:24:45.251Z,0.00
2018-01-26T05:25:45.182Z,0.00
2018-01-26T05:26:45.080Z,0.00
2018-01-26T05:27:45.014Z,0.00
2018-01-26T05:28:44.918Z,0.00
2018-01-26T05:29:44.845Z,0.00
2018-01-26T05:30:44.757Z,0.00
2018-01-26T05:31:44.685Z,0.00
2018-01-26T05:32:44.595Z,0.00
2018-01-26T05:33:44.511Z,0.00
2018-01-26T05:34:44.429Z,0.00
2018-01-26T05:35:44.346Z,0.00
2018-01-26T05:36:44.281Z,0.00
2018-01-26T05:37:44.194Z,0.00
2018-01-26T05:38:44.113Z,0.00
2018-01-26T05:39:44.321Z,0.00
2018-01-26T05:40:43.958Z,0.00
2018-01-26T05:41:43.859Z,0.00
2018-01-26T05:42:43.784Z,0.00
2018-01-26T05:43:43.704Z,0.00
2018-01-26T05:44:43.607Z,0.00
2018-01-26T05:45:43.537Z,0.00
2018-01-26T05:46:43.449Z,0.00
2018-01-26T05:47:43.370Z,0.00
2018-01-26T05:48:43.282Z,0.00
2018-01-26T05:49:43.213Z,0.00
2018-01-26T05:50:43.140Z,0.00
2018-01-26T05:51:43.036Z,0.00
2018-01-26T05:52:42.964Z,0.00
2018-01-26T05:53:42.880Z,0.00
2018-01-26T05:54:42.794Z,0.00
2018-01-26T05:55:42.710Z,0.00
2018-01-26T05:56:42.637Z,0.00
2018-01-26T05:57:42.551Z,0.00
2018-01-26T05:58:42.482Z,0.00
2018-01-26T05:59:42.385Z,0.00
2018-01-26T06:00:42.314Z,0.00
2018-01-26T06:01:42.220Z,0.00
2018-01-26T06:02:42.138Z,0.00
2018-01-26T06:03:42.061Z,0.00
2018-01-26T06:04:41.985Z,0.00
2018-01-26T06:05:41.916Z,0.00
2018-01-26T06:06:41.811Z,0.00
2018-01-26T06:07:41.731Z,0.00
2018-01-26T06:08:41.653Z,0.00
2018-01-26T06:09:41.585Z,0.00
2018-01-26T06:10:41.484Z,0.00
2018-01-26T06:11:41.416Z,0.00
2018-01-26T06:12:41.326Z,0.00
2018-01-26T06:13:41.237Z,0.00
2018-01-26T06:14:41.166Z,0.00
2018-01-26T06:15:41.071Z,0.00
2018-01-26T06:16:41.003Z,0.00
2018-01-26T06:17:40.914Z,0.00
2018-01-26T06:18:40.839Z,0.00
2018-01-26T06:19:40.764Z,0.00
2018-01-26T06:20:40.662Z,0.00
2018-01-26T06:21:40.596Z,0.00
2018-01-26T06:22:40.505Z,0.00
2018-01-26T06:23:40.428Z,0.00
2018-01-26T06:24:40.343Z,0.00
2018-01-26T06:25:40.260Z,0.00
2018-01-26T06:26:40.189Z,0.00
2018-01-26T06:27:40.094Z,0.00
2018-01-26T06:28:40.014Z,0.00
2018-01-26T06:29:39.933Z,0.00
2018-01-26T06:30:39.871Z,0.00
2018-01-26T06:31:39.762Z,0.00
2018-01-26T06:32:39.689Z,0.00
2018-01-26T06:33:39.602Z,0.00
2018-01-26T06:34:39.518Z,0.00
2018-01-26T06:35:39.442Z,0.00
2018-01-26T06:36:39.354Z,0.00
2018-01-26T06:37:39.281Z,0.00
2018-01-26T06:38:39.189Z,0.00
2018-01-26T06:39:39.116Z,0.00
2018-01-26T06:40:39.041Z,0.00
2018-01-26T06:41:38.962Z,0.00
2018-01-26T06:42:38.863Z,0.00
2018-01-26T06:43:38.791Z,0.00
2018-01-26T06:44:38.700Z,0.00
2018-01-26T06:45:38.615Z,0.00
2018-01-26T06:46:38.540Z,0.00
2018-01-26T06:47:38.453Z,0.00
2018-01-26T06:48:38.372Z,0.00
2018-01-26T06:49:38.287Z,0.00
2018-01-26T06:50:38.204Z,0.00
2018-01-26T06:51:38.147Z,0.00
2018-01-26T06:52:38.049Z,0.00
2018-01-26T06:53:37.971Z,0.00
2018-01-26T06:54:37.894Z,0.00
2018-01-26T06:55:37.788Z,0.00
2018-01-26T06:56:37.719Z,0.00
2018-01-26T06:57:37.627Z,0.00
2018-01-26T06:58:37.552Z,0.00
2018-01-26T06:59:37.470Z,0.00
2018-01-26T07:00:37.387Z,0.00
2018-01-26T07:01:37.309Z,0.00
2018-01-26T07:02:37.217Z,0.00
2018-01-26T07:03:37.141Z,0.00
2018-01-26T07:04:37.058Z,0.00
2018-01-26T07:05:36.983Z,0.00
2018-01-26T07:06:36.890Z,0.00
2018-01-26T07:07:36.819Z,0.00
2018-01-26T07:08:36.739Z,0.00
2018-01-26T07:09:36.646Z,0.00
2018-01-26T07:10:36.570Z,0.00
2018-01-26T07:11:36.479Z,0.00
2018-01-26T07:12:36.407Z,0.00
2018-01-26T07:13:36.318Z,0.00
2018-01-26T07:14:36.238Z,0.00
2018-01-26T07:15:36.167Z,0.00
2018-01-26T07:16:36.081Z,5.63
2018-01-26T07:17:35.994Z,5.63
2018-01-26T07:18:35.922Z,5.63
2018-01-26T07:19:36.130Z,5.63
2018-01-26T07:20:35.749Z,5.63
2018-01-26T07:21:35.709Z,5.63
2018-01-26T07:22:35.584Z,5.63
2018-01-26T07:23:35.496Z,5.63
2018-01-26T07:24:35.415Z,5.63
2018-01-26T07:25:35.349Z,5.63
2018-01-26T07:26:35.257Z,5.63
2018-01-26T07:27:35.166Z,5.63
2018-01-26T07:28:35.099Z,5.63
2018-01-26T07:29:35.018Z,5.63
2018-01-26T07:30:34.923Z,5.63
2018-01-26T07:31:34.846Z,5.63
2018-01-26T07:32:34.753Z,5.63
2018-01-26T07:33:34.683Z,5.63
2018-01-26T07:34:34.599Z,5.63
2018-01-26T07:35:34.522Z,5.63
2018-01-26T07:36:34.439Z,5.63
2018-01-26T07:37:34.347Z,5.63
2018-01-26T07:38:34.268Z,5.63
2018-01-26T07:39:34.196Z,11.25
2018-01-26T07:40:34.107Z,11.25
2018-01-26T07:41:34.030Z,11.25
2018-01-26T07:42:33.947Z,11.25
2018-01-26T07:43:33.874Z,11.25
2018-01-26T07:44:33.773Z,11.25
2018-01-26T07:45:33.697Z,11.25
2018-01-26T07:46:33.606Z,11.25
2018-01-26T07:47:33.591Z,16.88
2018-01-26T07:48:33.443Z,16.88
2018-01-26T07:49:33.373Z,16.88
2018-01-26T07:50:33.287Z,16.88
2018-01-26T07:51:33.202Z,16.88
2018-01-26T07:52:33.121Z,16.88
2018-01-26T07:53:33.037Z,16.88
2018-01-26T07:54:32.955Z,16.88
2018-01-26T07:55:32.872Z,16.88
2018-01-26T07:56:32.798Z,22.50
2018-01-26T07:57:32.717Z,22.50
2018-01-26T07:58:32.625Z,22.50
2018-01-26T07:59:32.551Z,22.50
2018-01-26T08:00:32.458Z,22.50
2018-01-26T08:01:32.388Z,28.13
2018-01-26T08:02:32.299Z,28.13
2018-01-26T08:03:32.219Z,28.13
2018-01-26T08:04:32.142Z,28.13
2018-01-26T08:05:32.047Z,22.50
2018-01-26T08:06:31.975Z,28.13
2018-01-26T08:07:31.901Z,28.13
2018-01-26T08:08:31.811Z,28.13
2018-01-26T08:09:31.729Z,28.13
2018-01-26T08:10:31.653Z,33.75
2018-01-26T08:11:31.563Z,33.75
2018-01-26T08:12:31.478Z,28.13
2018-01-26T08:13:31.401Z,28.13
2018-01-26T08:14:31.312Z,28.13
2018-01-26T08:15:31.251Z,28.13
2018-01-26T08:16:31.150Z,28.13
2018-01-26T08:17:31.086Z,28.13
2018-01-26T08:18:30.994Z,28.13
2018-01-26T08:19:30.898Z,28.13
2018-01-26T08:20:30.834Z,28.13
2018-01-26T08:21:30.747Z,33.75
2018-01-26T08:22:30.660Z,33.75
2018-01-26T08:23:30.577Z,33.75
2018-01-26T08:24:30.501Z,33.75
2018-01-26T08:25:30.414Z,39.38
2018-01-26T08:26:30.324Z,39.38
2018-01-26T08:27:30.245Z,39.38
2018-01-26T08:28:30.164Z,33.75
2018-01-26T08:29:30.086Z,28.13
2018-01-26T08:30:29.996Z,28.13
2018-01-26T08:31:29.920Z,28.13
2018-01-26T08:32:29.849Z,28.13
2018-01-26T08:33:29.770Z,28.13
2018-01-26T08:34:29.681Z,28.13
2018-01-26T08:35:29.598Z,28.13
2018-01-26T08:36:29.514Z,28.13
2018-01-26T08:37:29.427Z,33.75
2018-01-26T08:38:29.335Z,33.75
2018-01-26T08:39:29.272Z,39.38
2018-01-26T08:40:29.175Z,39.38
2018-01-26T08:41:29.103Z,39.38
2018-01-26T08:42:29.018Z,33.75
2018-01-26T08:43:28.941Z,39.38
2018-01-26T08:44:28.854Z,39.38
2018-01-26T08:45:28.782Z,39.38
2018-01-26T08:46:28.692Z,39.38
2018-01-26T08:47:28.605Z,45.00
2018-01-26T08:48:28.570Z,45.00
2018-01-26T08:49:28.458Z,45.00
2018-01-26T08:50:28.377Z,45.00
2018-01-26T08:51:28.273Z,45.00
2018-01-26T08:52:28.208Z,45.00
2018-01-26T08:53:28.117Z,45.00
2018-01-26T08:54:28.026Z,39.38
2018-01-26T08:55:27.955Z,39.38
2018-01-26T08:56:27.874Z,39.38
2018-01-26T08:57:27.797Z,39.38
2018-01-26T08:58:27.747Z,39.38
2018-01-26T08:59:27.623Z,45.00
2018-01-26T09:00:27.556Z,45.00
2018-01-26T09:01:27.478Z,45.00
2018-01-26T09:02:27.377Z,50.63
2018-01-26T09:03:27.297Z,45.00
2018-01-26T09:04:27.218Z,45.00
2018-01-26T09:05:27.136Z,39.38
2018-01-26T09:06:27.061Z,39.38
2018-01-26T09:07:26.980Z,39.38
2018-01-26T09:08:26.883Z,39.38
2018-01-26T09:09:26.807Z,39.38
2018-01-26T09:10:26.715Z,39.38
2018-01-26T09:11:26.644Z,33.75
2018-01-26T09:12:26.675Z,39.38
2018-01-26T09:13:26.484Z,39.38
2018-01-26T09:15:26.321Z,45.00
2018-01-26T09:16:26.249Z,45.00
2018-01-26T09:17:26.154Z,45.00
2018-01-26T09:18:26.065Z,45.00
2018-01-26T09:19:25.975Z,50.63
2018-01-26T09:20:25.910Z,50.63
2018-01-26T09:21:25.820Z,50.63
2018-01-26T09:22:25.757Z,56.25
2018-01-26T09:23:25.662Z,56.25
2018-01-26T09:24:25.622Z,61.88
2018-01-26T09:25:25.506Z,61.88
2018-01-26T09:26:25.401Z,61.88
2018-01-26T09:27:25.331Z,61.88
2018-01-26T09:28:25.244Z,61.88
2018-01-26T09:29:25.166Z,67.50
2018-01-26T09:30:25.083Z,67.50
2018-01-26T09:31:25.008Z,73.13
2018-01-26T09:32:24.929Z,73.13
2018-01-26T09:33:24.846Z,73.13
2018-01-26T09:34:24.758Z,73.13
2018-01-26T09:35:24.669Z,73.13
2018-01-26T09:36:24.598Z,73.13
2018-01-26T09:37:24.501Z,73.13
2018-01-26T09:38:24.419Z,73.13
2018-01-26T09:39:24.345Z,73.13
2018-01-26T09:40:24.256Z,67.50
2018-01-26T09:41:24.185Z,73.13
2018-01-26T09:42:24.093Z,73.13
2018-01-26T09:43:24.018Z,73.13
2018-01-26T09:44:23.941Z,73.13
2018-01-26T09:45:23.858Z,73.13
2018-01-26T09:46:23.770Z,73.13
2018-01-26T09:47:23.684Z,67.50
2018-01-26T09:48:23.603Z,73.13
2018-01-26T09:49:23.527Z,73.13
2018-01-26T09:50:23.457Z,73.13
2018-01-26T09:51:23.354Z,73.13
2018-01-26T09:52:23.283Z,73.13
2018-01-26T09:53:23.194Z,73.13
2018-01-26T09:54:23.116Z,73.13
2018-01-26T09:55:23.037Z,73.13
2018-01-26T09:56:22.956Z,73.13
2018-01-26T09:57:22.871Z,73.13
2018-01-26T09:58:23.028Z,73.13
2018-01-26T09:59:22.921Z,73.13
2018-01-26T10:00:22.664Z,73.13
2018-01-26T10:01:22.720Z,73.13
2018-01-26T10:02:22.697Z,73.13
2018-01-26T10:03:22.497Z,67.50
2018-01-26T10:04:22.442Z,67.50
2018-01-26T10:05:22.747Z,67.50
2018-01-26T10:06:22.441Z,67.50
2018-01-26T10:07:22.062Z,67.50
2018-01-26T10:08:22.199Z,67.50
2018-01-26T10:09:22.028Z,73.13
2018-01-26T10:10:21.810Z,73.13
2018-01-26T10:11:21.895Z,73.13
2018-01-26T10:12:21.719Z,78.75
2018-01-26T10:13:21.726Z,73.13
2018-01-26T10:14:21.490Z,73.13
2018-01-26T10:15:21.494Z,73.13
2018-01-26T10:16:21.331Z,73.13
2018-01-26T10:17:21.446Z,78.75
2018-01-26T10:18:21.278Z,78.75
2018-01-26T10:19:21.088Z,78.75
2018-01-26T10:20:21.136Z,73.13
2018-01-26T10:21:21.064Z,73.13
2018-01-26T10:22:21.090Z,67.50
2018-01-26T10:23:20.931Z,67.50
2018-01-26T10:24:20.912Z,67.50
2018-01-26T10:25:20.819Z,61.88
2018-01-26T10:26:20.655Z,67.50
2018-01-26T10:27:20.649Z,67.50
2018-01-26T10:28:20.562Z,67.50
2018-01-26T10:29:20.463Z,67.50
2018-01-26T10:30:20.340Z,67.50
2018-01-26T10:31:20.335Z,67.50
2018-01-26T10:32:20.326Z,61.88
2018-01-26T10:33:20.077Z,67.50
2018-01-26T10:34:20.069Z,67.50
2018-01-26T10:35:20.012Z,67.50
2018-01-26T10:36:19.694Z,67.50
2018-01-26T10:37:19.731Z,73.13
2018-01-26T10:38:19.771Z,78.75
2018-01-26T10:39:19.656Z,73.13
2018-01-26T10:40:19.359Z,73.13
2018-01-26T10:41:19.276Z,73.13
2018-01-26T10:42:19.191Z,73.13
2018-01-26T10:43:19.109Z,67.50
2018-01-26T10:44:19.045Z,61.88
2018-01-26T10:45:18.953Z,61.88
2018-01-26T10:46:18.872Z,78.75
2018-01-26T10:47:18.791Z,84.38
2018-01-26T10:48:18.702Z,90.00
2018-01-26T10:49:18.628Z,95.63
2018-01-26T10:50:18.534Z,95.63
2018-01-26T10:51:18.464Z,95.63
2018-01-26T10:52:18.378Z,90.00
2018-01-26T10:53:18.302Z,90.00
2018-01-26T10:54:18.218Z,84.38
2018-01-26T10:55:18.142Z,78.75
2018-01-26T10:56:18.054Z,84.38
2018-01-26T10:57:17.971Z,84.38
2018-01-26T10:58:17.888Z,78.75
2018-01-26T10:59:17.800Z,78.75
2018-01-26T11:00:17.744Z,78.75
2018-01-26T11:01:17.635Z,78.75
2018-01-26T11:02:17.570Z,78.75
2018-01-26T11:03:17.484Z,73.13
2018-01-26T11:04:17.405Z,78.75
2018-01-26T11:05:17.316Z,78.75
2018-01-26T11:06:17.238Z,78.75
2018-01-26T11:07:17.163Z,78.75
2018-01-26T11:08:17.091Z,84.38
2018-01-26T11:09:16.990Z,84.38
2018-01-26T11:10:16.916Z,84.38
2018-01-26T11:11:16.840Z,84.38
2018-01-26T11:12:16.745Z,90.00
2018-01-26T11:13:16.667Z,90.00
2018-01-26T11:14:16.580Z,90.00
2018-01-26T11:15:16.502Z,95.63
2018-01-26T11:16:16.432Z,90.00
2018-01-26T11:17:16.341Z,90.00
2018-01-26T11:18:16.254Z,95.63
2018-01-26T11:19:16.179Z,90.00
2018-01-26T11:20:16.137Z,106.88
2018-01-26T11:21:16.019Z,95.63
2018-01-26T11:22:15.929Z,101.25
2018-01-26T11:23:15.853Z,95.63
2018-01-26T11:24:15.769Z,112.50
2018-01-26T11:25:15.691Z,101.25
2018-01-26T11:26:15.618Z,101.25
2018-01-26T11:27:15.535Z,112.50
2018-01-26T11:28:15.448Z,106.88
2018-01-26T11:29:15.372Z,112.50
2018-01-26T11:30:15.288Z,112.50
2018-01-26T11:31:15.194Z,118.13
2018-01-26T11:32:15.123Z,118.13
2018-01-26T11:33:15.045Z,118.13
2018-01-26T11:34:14.960Z,112.50
2018-01-26T11:35:14.875Z,118.13
2018-01-26T11:36:14.791Z,112.50
2018-01-26T11:37:14.719Z,112.50
2018-01-26T11:38:14.639Z,95.63
2018-01-26T11:39:14.540Z,101.25
2018-01-26T11:40:14.468Z,101.25
2018-01-26T11:41:14.389Z,101.25
2018-01-26T11:42:14.311Z,101.25
2018-01-26T11:43:14.226Z,106.88
2018-01-26T11:44:14.140Z,106.88
2018-01-26T11:45:14.070Z,118.13
2018-01-26T11:46:13.981Z,129.38
2018-01-26T11:47:13.894Z,123.75
2018-01-26T11:48:13.825Z,123.75
2018-01-26T11:49:13.752Z,123.75
2018-01-26T11:50:13.659Z,140.63
2018-01-26T11:51:13.570Z,140.63
2018-01-26T11:52:13.491Z,146.25
2018-01-26T11:53:13.425Z,157.50
2018-01-26T11:54:13.347Z,157.50
2018-01-26T11:55:13.245Z,163.13
2018-01-26T11:56:13.172Z,180.00
2018-01-26T11:57:13.095Z,174.38
2018-01-26T11:58:13.022Z,168.75
2018-01-26T11:59:12.926Z,146.25
2018-01-26T12:00:12.845Z,146.25
2018-01-26T12:01:12.771Z,146.25
2018-01-26T12:02:12.683Z,146.25
2018-01-26T12:03:12.594Z,157.50
2018-01-26T12:04:12.520Z,157.50
2018-01-26T12:05:12.444Z,180.00
2018-01-26T12:06:12.361Z,174.38
2018-01-26T12:07:12.286Z,185.63
2018-01-26T12:08:12.194Z,168.75
2018-01-26T12:09:12.129Z,168.75
2018-01-26T12:10:12.032Z,140.63
2018-01-26T12:11:11.962Z,129.38
2018-01-26T12:12:11.872Z,140.63
2018-01-26T12:13:11.798Z,140.63
2018-01-26T12:14:11.742Z,140.63
2018-01-26T12:15:11.646Z,118.13
2018-01-26T12:16:11.553Z,118.13
2018-01-26T12:17:11.468Z,129.38
2018-01-26T12:18:11.413Z,123.75
2018-01-26T12:19:11.311Z,123.75
2018-01-26T12:20:11.221Z,157.50
2018-01-26T12:21:11.151Z,174.38
2018-01-26T12:22:11.060Z,146.25
2018-01-26T12:23:10.998Z,135.00
2018-01-26T12:24:10.914Z,163.13
2018-01-26T12:25:10.819Z,185.63
2018-01-26T12:26:10.737Z,196.88
2018-01-26T12:27:10.661Z,163.13
2018-01-26T12:28:10.583Z,180.00
2018-01-26T12:29:10.673Z,168.75
2018-01-26T12:30:10.420Z,129.38
2018-01-26T12:31:10.350Z,123.75
2018-01-26T12:32:10.273Z,123.75
2018-01-26T12:33:10.178Z,101.25
2018-01-26T12:34:10.101Z,95.63
2018-01-26T12:35:10.016Z,78.75
2018-01-26T12:36:09.942Z,118.13
2018-01-26T12:37:09.878Z,123.75
2018-01-26T12:38:09.774Z,112.50
2018-01-26T12:39:09.701Z,101.25
2018-01-26T12:40:09.614Z,101.25
2018-01-26T12:41:09.525Z,95.63
2018-01-26T12:42:09.458Z,90.00
2018-01-26T12:43:09.378Z,101.25
2018-01-26T12:44:09.286Z,101.25
2018-01-26T12:45:09.227Z,84.38
2018-01-26T12:46:09.124Z,84.38
2018-01-26T12:47:09.048Z,84.38
2018-01-26T12:48:08.969Z,73.13
2018-01-26T12:49:08.886Z,78.75
2018-01-26T12:50:08.801Z,95.63
2018-01-26T12:51:08.727Z,73.13
2018-01-26T12:52:08.635Z,78.75
2018-01-26T12:53:08.567Z,78.75
2018-01-26T12:54:08.473Z,90.00
2018-01-26T12:55:08.402Z,101.25
2018-01-26T12:56:08.329Z,95.63
2018-01-26T12:57:08.236Z,84.38
2018-01-26T12:58:08.158Z,78.75
2018-01-26T12:59:08.076Z,90.00
2018-01-26T13:00:07.997Z,90.00
2018-01-26T13:01:07.914Z,95.63
2018-01-26T13:02:07.831Z,95.63
2018-01-26T13:03:07.752Z,90.00
2018-01-26T13:04:07.676Z,84.38